sensor_id;sensor_type;location;lat;lon;timestamp;temperature;humidity
26599;DHT22;14240;51.064;16.612;2023-02-26T00:01:33;1.40;99.90
26599;DHT22;14240;51.064;16.612;2023-02-26T00:04:01;1.40;99.90
26599;DHT22;14240;51.064;16.612;2023-02-26T00:06:28;1.40;99.90
26599;DHT22;14240;51.064;16.612;2023-02-26T00:08:54;1.40;99.90
26599;DHT22;14240;51.064;16.612;2023-02-26T00:11:21;1.40;99.90
26599;DHT22;14240;51.064;16.612;2023-02-26T00:13:47;1.30;99.90
26599;DHT22;14240;51.064;16.612;2023-02-26T00:16:36;1.40;99.90
26599;DHT22;14240;51.064;16.612;2023-02-26T00:19:04;1.40;99.90
26599;DHT22;14240;51.064;16.612;2023-02-26T00:21:31;1.30;99.90
26599;DHT22;14240;51.064;16.612;2023-02-26T00:23:57;1.40;99.90
26599;DHT22;14240;51.064;16.612;2023-02-26T00:26:25;1.30;99.90
26599;DHT22;14240;51.064;16.612;2023-02-26T00:28:52;1.30;99.90
26599;DHT22;14240;51.064;16.612;2023-02-26T00:31:18;1.30;99.90
26599;DHT22;14240;51.064;16.612;2023-02-26T00:33:46;1.30;99.90
26599;DHT22;14240;51.064;16.612;2023-02-26T00:41:24;1.30;99.90
26599;DHT22;14240;51.064;16.612;2023-02-26T00:43:50;1.30;99.90
26599;DHT22;14240;51.064;16.612;2023-02-26T00:55:01;1.30;99.90
26599;DHT22;14240;51.064;16.612;2023-02-26T00:57:27;1.30;99.90
26599;DHT22;14240;51.064;16.612;2023-02-26T00:59:52;1.30;99.90
26599;DHT22;14240;51.064;16.612;2023-02-26T01:02:18;1.30;99.90
26599;DHT22;14240;51.064;16.612;2023-02-26T01:04:44;1.30;99.90
26599;DHT22;14240;51.064;16.612;2023-02-26T01:07:11;1.30;99.90
26599;DHT22;14240;51.064;16.612;2023-02-26T01:09:38;1.30;99.90
26599;DHT22;14240;51.064;16.612;2023-02-26T01:12:09;1.30;99.90
26599;DHT22;14240;51.064;16.612;2023-02-26T01:14:36;1.30;99.90
26599;DHT22;14240;51.064;16.612;2023-02-26T01:17:24;1.30;99.90
26599;DHT22;14240;51.064;16.612;2023-02-26T01:20:00;1.20;99.90
26599;DHT22;14240;51.064;16.612;2023-02-26T01:25:15;1.20;99.90
26599;DHT22;14240;51.064;16.612;2023-02-26T01:27:42;1.20;99.90
26599;DHT22;14240;51.064;16.612;2023-02-26T01:30:09;1.20;99.90
26599;DHT22;14240;51.064;16.612;2023-02-26T01:35:10;1.20;99.90
26599;DHT22;14240;51.064;16.612;2023-02-26T01:38:31;1.20;99.90
26599;DHT22;14240;51.064;16.612;2023-02-26T01:41:01;1.20;99.90
26599;DHT22;14240;51.064;16.612;2023-02-26T01:43:44;1.20;99.90
26599;DHT22;14240;51.064;16.612;2023-02-26T01:49:18;1.10;99.90
26599;DHT22;14240;51.064;16.612;2023-02-26T01:51:51;1.10;99.90
26599;DHT22;14240;51.064;16.612;2023-02-26T01:54:21;1.10;99.90
26599;DHT22;14240;51.064;16.612;2023-02-26T01:56:51;1.10;99.90
26599;DHT22;14240;51.064;16.612;2023-02-26T01:59:18;1.20;99.90
26599;DHT22;14240;51.064;16.612;2023-02-26T02:01:52;1.20;99.90
26599;DHT22;14240;51.064;16.612;2023-02-26T02:04:20;1.20;99.90
26599;DHT22;14240;51.064;16.612;2023-02-26T02:06:47;1.20;99.90
26599;DHT22;14240;51.064;16.612;2023-02-26T02:09:13;1.20;99.90
26599;DHT22;14240;51.064;16.612;2023-02-26T02:20:07;1.20;99.90
26599;DHT22;14240;51.064;16.612;2023-02-26T02:31:10;1.10;99.90
26599;DHT22;14240;51.064;16.612;2023-02-26T02:33:49;1.10;99.90
26599;DHT22;14240;51.064;16.612;2023-02-26T02:36:48;1.10;99.90
26599;DHT22;14240;51.064;16.612;2023-02-26T02:44:56;1.10;99.90
26599;DHT22;14240;51.064;16.612;2023-02-26T02:47:24;1.20;99.90
26599;DHT22;14240;51.064;16.612;2023-02-26T02:55:35;1.10;99.90
26599;DHT22;14240;51.064;16.612;2023-02-26T02:58:16;1.10;99.90
26599;DHT22;14240;51.064;16.612;2023-02-26T03:00:49;1.20;99.90
26599;DHT22;14240;51.064;16.612;2023-02-26T03:05:41;1.20;99.90
26599;DHT22;14240;51.064;16.612;2023-02-26T03:08:12;1.20;99.90
26599;DHT22;14240;51.064;16.612;2023-02-26T03:10:39;1.20;99.90
26599;DHT22;14240;51.064;16.612;2023-02-26T03:13:10;1.20;99.90
26599;DHT22;14240;51.064;16.612;2023-02-26T03:26:39;1.20;99.90
26599;DHT22;14240;51.064;16.612;2023-02-26T03:29:24;1.20;99.90
26599;DHT22;14240;51.064;16.612;2023-02-26T03:31:58;1.20;99.90
26599;DHT22;14240;51.064;16.612;2023-02-26T03:34:32;1.20;99.90
26599;DHT22;14240;51.064;16.612;2023-02-26T03:37:12;1.20;99.90
26599;DHT22;14240;51.064;16.612;2023-02-26T03:39:43;1.20;99.90
26599;DHT22;14240;51.064;16.612;2023-02-26T03:44:54;1.20;99.90
26599;DHT22;14240;51.064;16.612;2023-02-26T03:47:22;1.20;99.90
26599;DHT22;14240;51.064;16.612;2023-02-26T03:49:58;1.30;99.90
26599;DHT22;14240;51.064;16.612;2023-02-26T03:52:28;1.30;99.90
26599;DHT22;14240;51.064;16.612;2023-02-26T03:55:05;1.20;99.90
26599;DHT22;14240;51.064;16.612;2023-02-26T03:57:33;1.30;99.90
26599;DHT22;14240;51.064;16.612;2023-02-26T03:59:59;1.20;99.90
26599;DHT22;14240;51.064;16.612;2023-02-26T04:02:36;1.20;99.90
26599;DHT22;14240;51.064;16.612;2023-02-26T04:05:11;1.20;99.90
26599;DHT22;14240;51.064;16.612;2023-02-26T04:07:39;1.20;99.90
26599;DHT22;14240;51.064;16.612;2023-02-26T04:10:07;1.20;99.90
26599;DHT22;14240;51.064;16.612;2023-02-26T04:12:34;1.10;99.90
26599;DHT22;14240;51.064;16.612;2023-02-26T04:15:00;1.20;99.90
26599;DHT22;14240;51.064;16.612;2023-02-26T04:17:26;1.20;99.90
26599;DHT22;14240;51.064;16.612;2023-02-26T04:19:52;1.20;99.90
26599;DHT22;14240;51.064;16.612;2023-02-26T04:22:18;1.20;99.90
26599;DHT22;14240;51.064;16.612;2023-02-26T04:24:43;1.20;99.90
26599;DHT22;14240;51.064;16.612;2023-02-26T04:27:09;1.20;99.90
26599;DHT22;14240;51.064;16.612;2023-02-26T04:29:35;1.20;99.90
26599;DHT22;14240;51.064;16.612;2023-02-26T04:32:02;1.20;99.90
26599;DHT22;14240;51.064;16.612;2023-02-26T04:34:28;1.20;99.90
26599;DHT22;14240;51.064;16.612;2023-02-26T04:36:53;1.20;99.90
26599;DHT22;14240;51.064;16.612;2023-02-26T04:39:19;1.20;99.90
26599;DHT22;14240;51.064;16.612;2023-02-26T04:41:45;1.20;99.90
26599;DHT22;14240;51.064;16.612;2023-02-26T04:44:11;1.20;99.90
26599;DHT22;14240;51.064;16.612;2023-02-26T04:46:36;1.20;99.90
26599;DHT22;14240;51.064;16.612;2023-02-26T04:49:02;1.20;99.90
26599;DHT22;14240;51.064;16.612;2023-02-26T04:51:29;1.30;99.90
26599;DHT22;14240;51.064;16.612;2023-02-26T04:53:55;1.30;99.90
26599;DHT22;14240;51.064;16.612;2023-02-26T04:56:21;1.20;99.90
26599;DHT22;14240;51.064;16.612;2023-02-26T04:58:47;1.30;99.90
26599;DHT22;14240;51.064;16.612;2023-02-26T05:01:13;1.20;99.90
26599;DHT22;14240;51.064;16.612;2023-02-26T05:03:39;1.30;99.90
26599;DHT22;14240;51.064;16.612;2023-02-26T05:06:05;1.20;99.90
26599;DHT22;14240;51.064;16.612;2023-02-26T05:08:31;1.20;99.90
26599;DHT22;14240;51.064;16.612;2023-02-26T05:10:56;1.20;99.90
26599;DHT22;14240;51.064;16.612;2023-02-26T05:13:23;1.30;99.90
26599;DHT22;14240;51.064;16.612;2023-02-26T05:15:48;1.20;99.90
26599;DHT22;14240;51.064;16.612;2023-02-26T05:18:14;1.30;99.90
26599;DHT22;14240;51.064;16.612;2023-02-26T05:20:40;1.30;99.90
26599;DHT22;14240;51.064;16.612;2023-02-26T05:23:06;1.30;99.90
26599;DHT22;14240;51.064;16.612;2023-02-26T05:25:31;1.30;99.90
26599;DHT22;14240;51.064;16.612;2023-02-26T05:27:57;1.30;99.90
26599;DHT22;14240;51.064;16.612;2023-02-26T05:30:23;1.30;99.90
26599;DHT22;14240;51.064;16.612;2023-02-26T05:32:48;1.20;99.90
26599;DHT22;14240;51.064;16.612;2023-02-26T05:35:14;1.20;99.90
26599;DHT22;14240;51.064;16.612;2023-02-26T05:37:40;1.20;99.90
26599;DHT22;14240;51.064;16.612;2023-02-26T05:40:08;1.20;99.90
26599;DHT22;14240;51.064;16.612;2023-02-26T05:42:35;1.20;99.90
26599;DHT22;14240;51.064;16.612;2023-02-26T05:45:01;1.20;99.90
26599;DHT22;14240;51.064;16.612;2023-02-26T05:47:32;1.20;99.90
26599;DHT22;14240;51.064;16.612;2023-02-26T05:49:58;1.20;99.90
26599;DHT22;14240;51.064;16.612;2023-02-26T05:52:24;1.20;99.90
26599;DHT22;14240;51.064;16.612;2023-02-26T05:54:49;1.20;99.90
26599;DHT22;14240;51.064;16.612;2023-02-26T05:57:15;1.10;99.90
26599;DHT22;14240;51.064;16.612;2023-02-26T05:59:41;1.20;99.90
26599;DHT22;14240;51.064;16.612;2023-02-26T06:02:08;1.20;99.90
26599;DHT22;14240;51.064;16.612;2023-02-26T06:04:34;1.80;99.90
26599;DHT22;14240;51.064;16.612;2023-02-26T06:07:00;1.20;99.90
26599;DHT22;14240;51.064;16.612;2023-02-26T06:09:26;1.20;99.90
26599;DHT22;14240;51.064;16.612;2023-02-26T06:11:52;1.20;99.90
26599;DHT22;14240;51.064;16.612;2023-02-26T06:14:18;1.10;99.90
26599;DHT22;14240;51.064;16.612;2023-02-26T06:16:43;1.20;99.90
26599;DHT22;14240;51.064;16.612;2023-02-26T06:19:09;1.20;99.90
26599;DHT22;14240;51.064;16.612;2023-02-26T06:21:35;1.20;99.90
26599;DHT22;14240;51.064;16.612;2023-02-26T06:24:00;1.20;99.90
26599;DHT22;14240;51.064;16.612;2023-02-26T06:26:26;1.20;99.90
26599;DHT22;14240;51.064;16.612;2023-02-26T06:28:52;1.20;99.90
26599;DHT22;14240;51.064;16.612;2023-02-26T06:31:18;1.20;99.90
26599;DHT22;14240;51.064;16.612;2023-02-26T06:33:44;1.20;99.90
26599;DHT22;14240;51.064;16.612;2023-02-26T06:36:10;1.10;99.90
26599;DHT22;14240;51.064;16.612;2023-02-26T06:38:35;1.10;99.90
26599;DHT22;14240;51.064;16.612;2023-02-26T06:41:01;1.10;99.90
26599;DHT22;14240;51.064;16.612;2023-02-26T06:43:27;1.20;99.90
26599;DHT22;14240;51.064;16.612;2023-02-26T06:45:56;1.10;99.90
26599;DHT22;14240;51.064;16.612;2023-02-26T06:48:22;1.10;99.90
26599;DHT22;14240;51.064;16.612;2023-02-26T06:50:48;1.20;99.90
26599;DHT22;14240;51.064;16.612;2023-02-26T06:53:13;1.20;99.90
26599;DHT22;14240;51.064;16.612;2023-02-26T06:55:48;1.20;99.90
26599;DHT22;14240;51.064;16.612;2023-02-26T06:58:14;1.20;99.90
26599;DHT22;14240;51.064;16.612;2023-02-26T07:00:40;1.20;99.90
26599;DHT22;14240;51.064;16.612;2023-02-26T07:03:08;1.20;99.90
26599;DHT22;14240;51.064;16.612;2023-02-26T07:05:34;1.20;99.90
26599;DHT22;14240;51.064;16.612;2023-02-26T07:08:00;1.20;99.90
26599;DHT22;14240;51.064;16.612;2023-02-26T07:10:26;1.30;99.90
26599;DHT22;14240;51.064;16.612;2023-02-26T07:12:52;1.30;99.90
26599;DHT22;14240;51.064;16.612;2023-02-26T07:15:18;1.30;99.90
26599;DHT22;14240;51.064;16.612;2023-02-26T07:17:43;1.30;99.90
26599;DHT22;14240;51.064;16.612;2023-02-26T07:20:10;1.30;99.90
26599;DHT22;14240;51.064;16.612;2023-02-26T07:22:36;1.30;99.90
26599;DHT22;14240;51.064;16.612;2023-02-26T07:25:03;1.30;99.90
26599;DHT22;14240;51.064;16.612;2023-02-26T07:27:29;1.40;99.90
26599;DHT22;14240;51.064;16.612;2023-02-26T07:29:55;1.40;99.90
26599;DHT22;14240;51.064;16.612;2023-02-26T07:32:21;1.40;99.90
26599;DHT22;14240;51.064;16.612;2023-02-26T07:34:46;1.40;99.90
26599;DHT22;14240;51.064;16.612;2023-02-26T07:37:12;1.50;99.90
26599;DHT22;14240;51.064;16.612;2023-02-26T07:39:38;1.50;99.90
26599;DHT22;14240;51.064;16.612;2023-02-26T07:42:04;1.50;99.90
26599;DHT22;14240;51.064;16.612;2023-02-26T07:44:30;1.50;99.90
26599;DHT22;14240;51.064;16.612;2023-02-26T07:46:56;1.50;99.90
26599;DHT22;14240;51.064;16.612;2023-02-26T07:49:21;1.60;99.90
26599;DHT22;14240;51.064;16.612;2023-02-26T07:51:47;1.60;99.90
26599;DHT22;14240;51.064;16.612;2023-02-26T07:54:14;1.60;99.90
26599;DHT22;14240;51.064;16.612;2023-02-26T07:56:40;1.60;99.90
26599;DHT22;14240;51.064;16.612;2023-02-26T07:59:07;1.60;99.90
26599;DHT22;14240;51.064;16.612;2023-02-26T08:01:34;1.60;99.90
26599;DHT22;14240;51.064;16.612;2023-02-26T08:04:00;1.60;99.90
26599;DHT22;14240;51.064;16.612;2023-02-26T08:06:26;1.60;99.90
26599;DHT22;14240;51.064;16.612;2023-02-26T08:08:51;1.70;99.90
26599;DHT22;14240;51.064;16.612;2023-02-26T08:11:17;1.70;99.90
26599;DHT22;14240;51.064;16.612;2023-02-26T08:13:43;1.70;99.90
26599;DHT22;14240;51.064;16.612;2023-02-26T08:16:09;1.70;99.90
26599;DHT22;14240;51.064;16.612;2023-02-26T08:18:34;1.70;99.90
26599;DHT22;14240;51.064;16.612;2023-02-26T08:21:00;1.80;99.90
26599;DHT22;14240;51.064;16.612;2023-02-26T08:23:26;1.80;99.90
26599;DHT22;14240;51.064;16.612;2023-02-26T08:26:00;1.80;99.90
26599;DHT22;14240;51.064;16.612;2023-02-26T08:28:26;1.90;99.90
26599;DHT22;14240;51.064;16.612;2023-02-26T08:30:52;1.80;99.90
26599;DHT22;14240;51.064;16.612;2023-02-26T08:33:18;1.80;99.90
26599;DHT22;14240;51.064;16.612;2023-02-26T08:35:44;1.80;99.90
26599;DHT22;14240;51.064;16.612;2023-02-26T08:38:09;1.80;99.90
26599;DHT22;14240;51.064;16.612;2023-02-26T08:40:35;1.80;99.90
26599;DHT22;14240;51.064;16.612;2023-02-26T08:43:01;1.80;99.90
26599;DHT22;14240;51.064;16.612;2023-02-26T08:45:28;1.80;99.90
26599;DHT22;14240;51.064;16.612;2023-02-26T08:47:54;1.80;99.90
26599;DHT22;14240;51.064;16.612;2023-02-26T08:50:20;1.80;99.90
26599;DHT22;14240;51.064;16.612;2023-02-26T08:52:46;1.80;99.90
26599;DHT22;14240;51.064;16.612;2023-02-26T08:55:12;1.80;99.90
26599;DHT22;14240;51.064;16.612;2023-02-26T08:57:38;1.80;99.90
26599;DHT22;14240;51.064;16.612;2023-02-26T09:00:05;1.90;99.90
26599;DHT22;14240;51.064;16.612;2023-02-26T09:02:36;1.90;99.90
26599;DHT22;14240;51.064;16.612;2023-02-26T09:05:02;1.90;99.90
26599;DHT22;14240;51.064;16.612;2023-02-26T09:07:28;2.00;99.90
26599;DHT22;14240;51.064;16.612;2023-02-26T09:09:53;2.00;99.90
26599;DHT22;14240;51.064;16.612;2023-02-26T09:12:19;2.00;99.90
26599;DHT22;14240;51.064;16.612;2023-02-26T09:14:45;2.00;99.90
26599;DHT22;14240;51.064;16.612;2023-02-26T09:17:10;2.00;99.90
26599;DHT22;14240;51.064;16.612;2023-02-26T09:19:36;2.10;99.90
26599;DHT22;14240;51.064;16.612;2023-02-26T09:22:03;2.10;99.90
26599;DHT22;14240;51.064;16.612;2023-02-26T09:24:29;2.20;99.90
26599;DHT22;14240;51.064;16.612;2023-02-26T09:26:54;2.20;99.90
26599;DHT22;14240;51.064;16.612;2023-02-26T09:29:20;2.30;99.90
26599;DHT22;14240;51.064;16.612;2023-02-26T09:31:46;2.30;99.90
26599;DHT22;14240;51.064;16.612;2023-02-26T09:34:12;2.30;99.90
26599;DHT22;14240;51.064;16.612;2023-02-26T09:36:38;2.40;99.90
26599;DHT22;14240;51.064;16.612;2023-02-26T09:39:04;2.50;99.90
26599;DHT22;14240;51.064;16.612;2023-02-26T09:41:33;2.50;99.90
26599;DHT22;14240;51.064;16.612;2023-02-26T09:54:53;3.20;99.90
26599;DHT22;14240;51.064;16.612;2023-02-26T09:57:35;3.40;99.90
26599;DHT22;14240;51.064;16.612;2023-02-26T10:00:06;3.60;99.90
26599;DHT22;14240;51.064;16.612;2023-02-26T10:08:10;4.00;99.90
26599;DHT22;14240;51.064;16.612;2023-02-26T10:15:56;4.00;99.90
26599;DHT22;14240;51.064;16.612;2023-02-26T10:18:28;4.00;99.90
26599;DHT22;14240;51.064;16.612;2023-02-26T10:23:43;4.10;99.90
26599;DHT22;14240;51.064;16.612;2023-02-26T10:41:45;4.50;99.90
26599;DHT22;14240;51.064;16.612;2023-02-26T10:44:27;4.40;99.90
26599;DHT22;14240;51.064;16.612;2023-02-26T10:47:31;4.30;99.90
26599;DHT22;14240;51.064;16.612;2023-02-26T10:50:00;4.20;99.90
26599;DHT22;14240;51.064;16.612;2023-02-26T10:52:27;4.10;99.90
26599;DHT22;14240;51.064;16.612;2023-02-26T10:55:23;4.10;99.90
26599;DHT22;14240;51.064;16.612;2023-02-26T11:00:41;4.00;99.90
26599;DHT22;14240;51.064;16.612;2023-02-26T11:03:20;4.00;99.90
26599;DHT22;14240;51.064;16.612;2023-02-26T11:05:46;4.00;99.90
26599;DHT22;14240;51.064;16.612;2023-02-26T11:08:27;4.00;99.90
26599;DHT22;14240;51.064;16.612;2023-02-26T11:10:58;3.90;99.90
26599;DHT22;14240;51.064;16.612;2023-02-26T11:13:29;3.80;99.90
26599;DHT22;14240;51.064;16.612;2023-02-26T11:15:58;3.70;99.90
26599;DHT22;14240;51.064;16.612;2023-02-26T11:18:49;3.70;99.90
26599;DHT22;14240;51.064;16.612;2023-02-26T11:21:24;3.60;99.90
26599;DHT22;14240;51.064;16.612;2023-02-26T11:24:06;3.60;99.90
26599;DHT22;14240;51.064;16.612;2023-02-26T11:26:35;3.50;99.90
26599;DHT22;14240;51.064;16.612;2023-02-26T11:29:02;3.50;99.90
26599;DHT22;14240;51.064;16.612;2023-02-26T11:31:29;3.40;99.90
26599;DHT22;14240;51.064;16.612;2023-02-26T11:34:02;3.80;99.90
26599;DHT22;14240;51.064;16.612;2023-02-26T11:36:32;3.40;99.90
26599;DHT22;14240;51.064;16.612;2023-02-26T11:39:20;3.40;99.90
26599;DHT22;14240;51.064;16.612;2023-02-26T11:41:48;3.30;99.90
26599;DHT22;14240;51.064;16.612;2023-02-26T11:44:38;3.30;99.90
26599;DHT22;14240;51.064;16.612;2023-02-26T11:47:10;3.30;99.90
26599;DHT22;14240;51.064;16.612;2023-02-26T11:49:43;3.30;99.90
26599;DHT22;14240;51.064;16.612;2023-02-26T11:54:38;3.30;99.90
26599;DHT22;14240;51.064;16.612;2023-02-26T11:57:11;3.30;99.90
26599;DHT22;14240;51.064;16.612;2023-02-26T11:59:40;3.30;99.90
26599;DHT22;14240;51.064;16.612;2023-02-26T12:02:13;3.40;99.90
26599;DHT22;14240;51.064;16.612;2023-02-26T12:04:42;3.40;99.90
26599;DHT22;14240;51.064;16.612;2023-02-26T12:07:12;3.50;99.90
26599;DHT22;14240;51.064;16.612;2023-02-26T12:09:39;3.60;99.90
26599;DHT22;14240;51.064;16.612;2023-02-26T12:20:23;3.80;99.90
26599;DHT22;14240;51.064;16.612;2023-02-26T12:25:56;3.90;99.90
26599;DHT22;14240;51.064;16.612;2023-02-26T12:37:16;3.90;99.90
26599;DHT22;14240;51.064;16.612;2023-02-26T12:45:09;3.90;99.90
26599;DHT22;14240;51.064;16.612;2023-02-26T12:50:33;4.00;99.90
26599;DHT22;14240;51.064;16.612;2023-02-26T13:17:26;4.40;99.90
26599;DHT22;14240;51.064;16.612;2023-02-26T13:20:21;4.40;99.90
26599;DHT22;14240;51.064;16.612;2023-02-26T13:22:47;4.40;99.90
26599;DHT22;14240;51.064;16.612;2023-02-26T13:26:06;4.40;99.90
26599;DHT22;14240;51.064;16.612;2023-02-26T13:28:41;4.40;99.90
26599;DHT22;14240;51.064;16.612;2023-02-26T13:31:38;4.50;99.90
26599;DHT22;14240;51.064;16.612;2023-02-26T13:34:12;4.50;99.90
26599;DHT22;14240;51.064;16.612;2023-02-26T13:36:40;4.50;99.90
26599;DHT22;14240;51.064;16.612;2023-02-26T13:42:09;4.40;99.90
26599;DHT22;14240;51.064;16.612;2023-02-26T13:45:04;4.40;99.90
26599;DHT22;14240;51.064;16.612;2023-02-26T13:50:28;4.40;99.90
26599;DHT22;14240;51.064;16.612;2023-02-26T13:53:02;4.30;99.90
26599;DHT22;14240;51.064;16.612;2023-02-26T13:55:37;4.30;99.90
26599;DHT22;14240;51.064;16.612;2023-02-26T14:03:49;3.90;99.90
26599;DHT22;14240;51.064;16.612;2023-02-26T14:08:53;3.40;99.90
26599;DHT22;14240;51.064;16.612;2023-02-26T14:14:40;3.20;99.90
26599;DHT22;14240;51.064;16.612;2023-02-26T14:20:24;3.10;99.90
26599;DHT22;14240;51.064;16.612;2023-02-26T14:22:35;3.10;99.90
26599;DHT22;14240;51.064;16.612;2023-02-26T14:27:48;3.10;99.90
26599;DHT22;14240;51.064;16.612;2023-02-26T14:30:26;3.20;99.90
26599;DHT22;14240;51.064;16.612;2023-02-26T14:35:31;3.20;99.90
26599;DHT22;14240;51.064;16.612;2023-02-26T14:38:25;3.10;99.90
26599;DHT22;14240;51.064;16.612;2023-02-26T14:43:39;3.00;99.90
26599;DHT22;14240;51.064;16.612;2023-02-26T14:46:07;3.00;99.90
26599;DHT22;14240;51.064;16.612;2023-02-26T14:48:33;3.10;99.90
26599;DHT22;14240;51.064;16.612;2023-02-26T15:05:16;3.60;99.90
26599;DHT22;14240;51.064;16.612;2023-02-26T15:08:08;3.70;99.90
26599;DHT22;14240;51.064;16.612;2023-02-26T15:10:58;3.70;99.90
26599;DHT22;14240;51.064;16.612;2023-02-26T15:17:00;3.30;99.90
26599;DHT22;14240;51.064;16.612;2023-02-26T15:22:29;3.10;99.90
26599;DHT22;14240;51.064;16.612;2023-02-26T15:24:56;3.00;99.90
26599;DHT22;14240;51.064;16.612;2023-02-26T15:27:22;3.10;99.90
26599;DHT22;14240;51.064;16.612;2023-02-26T15:29:49;2.90;99.90
26599;DHT22;14240;51.064;16.612;2023-02-26T15:32:30;2.70;99.90
26599;DHT22;14240;51.064;16.612;2023-02-26T15:35:03;2.50;99.90
26599;DHT22;14240;51.064;16.612;2023-02-26T15:37:30;2.30;99.90
26599;DHT22;14240;51.064;16.612;2023-02-26T15:40:02;2.20;99.90
26599;DHT22;14240;51.064;16.612;2023-02-26T15:42:38;2.10;99.90
26599;DHT22;14240;51.064;16.612;2023-02-26T15:45:27;2.10;99.90
26599;DHT22;14240;51.064;16.612;2023-02-26T15:47:58;2.00;99.90
26599;DHT22;14240;51.064;16.612;2023-02-26T15:50:28;2.00;99.90
26599;DHT22;14240;51.064;16.612;2023-02-26T15:52:57;2.10;99.90
26599;DHT22;14240;51.064;16.612;2023-02-26T15:55:24;2.10;99.90
26599;DHT22;14240;51.064;16.612;2023-02-26T15:57:51;2.10;99.90
26599;DHT22;14240;51.064;16.612;2023-02-26T16:00:20;2.60;99.90
26599;DHT22;14240;51.064;16.612;2023-02-26T16:02:54;2.10;99.90
26599;DHT22;14240;51.064;16.612;2023-02-26T16:05:23;2.00;99.90
26599;DHT22;14240;51.064;16.612;2023-02-26T16:07:49;2.00;99.90
26599;DHT22;14240;51.064;16.612;2023-02-26T16:10:39;2.10;99.90
26599;DHT22;14240;51.064;16.612;2023-02-26T16:13:06;2.10;99.90
26599;DHT22;14240;51.064;16.612;2023-02-26T16:15:38;2.10;99.90
26599;DHT22;14240;51.064;16.612;2023-02-26T16:18:12;2.10;99.90
26599;DHT22;14240;51.064;16.612;2023-02-26T16:20:43;2.10;99.90
26599;DHT22;14240;51.064;16.612;2023-02-26T16:23:20;2.10;99.90
26599;DHT22;14240;51.064;16.612;2023-02-26T16:25:53;2.10;99.90
26599;DHT22;14240;51.064;16.612;2023-02-26T16:28:27;2.10;99.90
26599;DHT22;14240;51.064;16.612;2023-02-26T16:30:55;2.10;99.90
26599;DHT22;14240;51.064;16.612;2023-02-26T16:33:24;2.00;99.90
26599;DHT22;14240;51.064;16.612;2023-02-26T16:35:56;2.00;99.90
26599;DHT22;14240;51.064;16.612;2023-02-26T16:38:29;2.00;99.90
26599;DHT22;14240;51.064;16.612;2023-02-26T16:41:05;2.00;99.90
26599;DHT22;14240;51.064;16.612;2023-02-26T16:46:11;1.90;99.90
26599;DHT22;14240;51.064;16.612;2023-02-26T16:51:18;1.80;99.90
26599;DHT22;14240;51.064;16.612;2023-02-26T16:53:58;1.80;99.90
26599;DHT22;14240;51.064;16.612;2023-02-26T16:56:30;1.80;99.90
26599;DHT22;14240;51.064;16.612;2023-02-26T16:59:15;1.80;99.90
26599;DHT22;14240;51.064;16.612;2023-02-26T17:04:23;1.80;99.90
26599;DHT22;14240;51.064;16.612;2023-02-26T17:06:51;1.70;99.90
26599;DHT22;14240;51.064;16.612;2023-02-26T17:09:33;1.70;99.90
26599;DHT22;14240;51.064;16.612;2023-02-26T17:12:50;1.70;99.90
26599;DHT22;14240;51.064;16.612;2023-02-26T17:15:00;1.70;99.90
26599;DHT22;14240;51.064;16.612;2023-02-26T17:17:26;1.70;99.90
26599;DHT22;14240;51.064;16.612;2023-02-26T17:19:52;1.70;99.90
26599;DHT22;14240;51.064;16.612;2023-02-26T17:22:24;1.60;99.90
26599;DHT22;14240;51.064;16.612;2023-02-26T17:24:50;1.70;99.90
26599;DHT22;14240;51.064;16.612;2023-02-26T17:27:30;1.70;99.90
26599;DHT22;14240;51.064;16.612;2023-02-26T17:29:59;1.70;99.90
26599;DHT22;14240;51.064;16.612;2023-02-26T17:32:26;1.70;99.90
26599;DHT22;14240;51.064;16.612;2023-02-26T17:34:53;1.70;99.90
26599;DHT22;14240;51.064;16.612;2023-02-26T17:37:19;1.80;99.90
26599;DHT22;14240;51.064;16.612;2023-02-26T17:39:46;1.80;99.90
26599;DHT22;14240;51.064;16.612;2023-02-26T17:42:16;1.80;99.90
26599;DHT22;14240;51.064;16.612;2023-02-26T17:44:44;1.80;99.90
26599;DHT22;14240;51.064;16.612;2023-02-26T17:47:16;1.80;99.90
26599;DHT22;14240;51.064;16.612;2023-02-26T17:49:42;1.80;99.90
26599;DHT22;14240;51.064;16.612;2023-02-26T17:52:08;1.80;99.90
26599;DHT22;14240;51.064;16.612;2023-02-26T17:54:34;1.80;99.90
26599;DHT22;14240;51.064;16.612;2023-02-26T17:57:00;1.80;99.90
26599;DHT22;14240;51.064;16.612;2023-02-26T17:59:26;1.80;99.90
26599;DHT22;14240;51.064;16.612;2023-02-26T18:01:53;1.80;99.90
26599;DHT22;14240;51.064;16.612;2023-02-26T18:04:19;1.80;99.90
26599;DHT22;14240;51.064;16.612;2023-02-26T18:06:44;1.80;99.90
26599;DHT22;14240;51.064;16.612;2023-02-26T18:09:11;1.80;99.90
26599;DHT22;14240;51.064;16.612;2023-02-26T18:11:37;1.80;99.90
26599;DHT22;14240;51.064;16.612;2023-02-26T18:14:04;1.80;99.90
26599;DHT22;14240;51.064;16.612;2023-02-26T18:16:34;1.80;99.90
26599;DHT22;14240;51.064;16.612;2023-02-26T18:19:01;1.90;99.90
26599;DHT22;14240;51.064;16.612;2023-02-26T18:21:27;1.80;99.90
26599;DHT22;14240;51.064;16.612;2023-02-26T18:23:53;1.80;99.90
26599;DHT22;14240;51.064;16.612;2023-02-26T18:26:22;1.90;99.90
26599;DHT22;14240;51.064;16.612;2023-02-26T18:28:49;1.90;99.90
26599;DHT22;14240;51.064;16.612;2023-02-26T18:31:16;1.90;99.90
26599;DHT22;14240;51.064;16.612;2023-02-26T18:33:42;1.90;99.90
26599;DHT22;14240;51.064;16.612;2023-02-26T18:36:30;1.90;99.90
26599;DHT22;14240;51.064;16.612;2023-02-26T18:39:05;1.10;99.90
26599;DHT22;14240;51.064;16.612;2023-02-26T18:41:33;1.90;99.90
26599;DHT22;14240;51.064;16.612;2023-02-26T18:43:59;1.80;99.90
26599;DHT22;14240;51.064;16.612;2023-02-26T18:46:25;1.80;99.90
26599;DHT22;14240;51.064;16.612;2023-02-26T18:48:51;1.90;99.90
26599;DHT22;14240;51.064;16.612;2023-02-26T18:51:17;1.90;99.90
26599;DHT22;14240;51.064;16.612;2023-02-26T18:53:43;1.90;99.90
26599;DHT22;14240;51.064;16.612;2023-02-26T18:56:09;1.90;99.90
26599;DHT22;14240;51.064;16.612;2023-02-26T18:58:35;1.90;99.90
26599;DHT22;14240;51.064;16.612;2023-02-26T19:01:02;1.90;99.90
26599;DHT22;14240;51.064;16.612;2023-02-26T19:03:29;2.00;99.90
26599;DHT22;14240;51.064;16.612;2023-02-26T19:05:58;2.00;99.90
26599;DHT22;14240;51.064;16.612;2023-02-26T19:08:24;2.00;99.90
26599;DHT22;14240;51.064;16.612;2023-02-26T19:10:49;2.00;99.90
26599;DHT22;14240;51.064;16.612;2023-02-26T19:13:15;2.00;99.90
26599;DHT22;14240;51.064;16.612;2023-02-26T19:15:41;2.00;99.90
26599;DHT22;14240;51.064;16.612;2023-02-26T19:18:07;2.00;99.90
26599;DHT22;14240;51.064;16.612;2023-02-26T19:20:33;2.10;99.90
26599;DHT22;14240;51.064;16.612;2023-02-26T19:22:58;2.00;99.90
26599;DHT22;14240;51.064;16.612;2023-02-26T19:25:25;2.00;99.90
26599;DHT22;14240;51.064;16.612;2023-02-26T19:27:53;2.40;99.90